• Join FlightAware (Why Join?)
  • Login
  • US Flag 
04:35AM EST


 

Airport Tracker/Info


-or-


 

Live Flight TrackerFlight Track Log ✈ N884WT ✈ 13-Sep-2013 ✈ KCRQ - KIAD

Flight Track Log - Related Links

Times and Time Zones

All times are in EDT time to prevent confusion due to time zone crossing. See the N884WT flight status page for this flight to view local times or setup timezone preferences in your user account.

Time Position Orientation Groundspeed Altitude Reporting Facility
EDT Latitude Longitude Course Direction KTS MPH feet Rate Location/Type
06:43PM 33.1333 -117.3000 335° Northwest 161 185 1,300  Level Southern California TRACON
06:46PM 33.2178 -117.3472 335° Northwest 281 323 5,900 2,040 Climbing Los Angeles Center
06:47PM 33.2408 -117.2586 73° East 281 323 8,400 2,100 Climbing Los Angeles Center
06:48PM 33.2739 -117.1681 66° East 290 334 10,700 1,920 Climbing Los Angeles Center
06:49PM 33.3256 -117.0247 67° East 353 406 12,900 1,920 Climbing Los Angeles Center
06:50PM 33.3661 -116.9089 67° East 373 429 14,800 1,740 Climbing Los Angeles Center
06:51PM 33.4094 -116.7878 67° East 388 447 16,600 1,560 Climbing Los Angeles Center
06:52PM 33.4550 -116.6606 67° East 408 470 18,400 1,620 Climbing Los Angeles Center
06:53PM 33.5097 -116.5056 67° East 418 481 20,400 1,620 Climbing Los Angeles Center
06:54PM 33.5553 -116.3706 68° East 431 496 21,800 1,560 Climbing Los Angeles Center
06:55PM 33.6125 -116.2061 67° East 442 509 23,700 1,500 Climbing Los Angeles Center
06:56PM 33.6564 -116.0617 70° East 455 524 25,000 1,200 Climbing Los Angeles Center
06:57PM 33.7003 -115.9139 70° East 466 536 26,300 960 Climbing Los Angeles Center
06:58PM 33.7442 -115.7631 71° East 474 545 27,000 420 Climbing Los Angeles Center
07:00PM 33.7889 -115.6100 71° East 483 556 27,200 660 Climbing Los Angeles Center
07:01PM 33.8333 -115.4572 71° East 484 557 28,400 1,200 Climbing Los Angeles Center
07:02PM 33.8783 -115.3019 71° East 489 563 29,800 1,260 Climbing Los Angeles Center
07:03PM 33.9342 -115.1106 71° East 501 577 31,100 1,380 Climbing Los Angeles Center
07:04PM 33.9789 -114.9506 71° East 505 581 32,700 1,500 Climbing Los Angeles Center
07:05PM 34.0242 -114.7906 71° East 504 580 34,300 1,320 Climbing Los Angeles Center
07:06PM 34.0694 -114.6344 71° East 493 567 35,500 1,200 Climbing Los Angeles Center
07:07PM 34.1131 -114.4781 71° East 493 567 36,800 1,320 Climbing Los Angeles Center
07:08PM 34.1653 -114.2922 71° East 489 563 38,300 1,140 Climbing Los Angeles Center
07:09PM 34.2086 -114.1372 71° East 488 562 39,200 900 Climbing Los Angeles Center
07:10PM 34.2492 -113.9936 71° East 491 565 40,200 840 Climbing Albuquerque Center
07:11PM 34.2914 -113.8386 72° East 490 564 40,900 360 Climbing Albuquerque Center
07:12PM 34.3344 -113.6833 71° East 488 562 41,000  Climbing Albuquerque Center
07:13PM 34.3764 -113.5219 72° East 483 556 41,000  Level Albuquerque Center
07:14PM 34.4183 -113.3689 72° East 479 551 41,000  Level Albuquerque Center
07:15PM 34.4603 -113.2142 72° East 481 554 41,000  Level Albuquerque Center
07:16PM 34.5092 -113.0319 72° East 479 551 41,000  Level Albuquerque Center
07:17PM 34.5492 -112.8806 72° East 477 549 41,000  Level Albuquerque Center
07:18PM 34.5894 -112.7292 72° East 477 549 41,000  Level Albuquerque Center
07:19PM 34.6300 -112.5778 72° East 477 549 41,000  Level Albuquerque Center
07:20PM 34.6692 -112.4256 73° East 478 550 41,000  Level Albuquerque Center
07:21PM 34.7108 -112.2617 73° East 477 549 41,000  Level Albuquerque Center
07:22PM 34.7550 -112.0908 72° East 477 549 41,000  Level Albuquerque Center
07:23PM 34.7942 -111.9381 73° East 478 550 41,000  Level Albuquerque Center
07:24PM 34.8331 -111.7844 73° East 479 551 41,000  Level Albuquerque Center
07:25PM 34.8772 -111.6100 73° East 480 552 41,000  Level Albuquerque Center
07:26PM 34.9158 -111.4539 73° East 482 555 41,000  Level Albuquerque Center
07:27PM 34.9564 -111.2961 73° East 485 558 41,000  Level Albuquerque Center
07:28PM 34.9944 -111.1383 74° East 485 558 41,000  Level Albuquerque Center
07:29PM 35.0339 -110.9839 73° East 480 552 41,000  Level Albuquerque Center
07:30PM 35.0742 -110.8211 73° East 481 554 41,000  Level Albuquerque Center
07:31PM 35.1189 -110.6469 73° East 482 555 41,000  Level Albuquerque Center
07:32PM 35.1542 -110.4969 74° East 481 554 41,000  Level Albuquerque Center
07:33PM 35.1906 -110.3467 73° East 481 554 41,000  Level Albuquerque Center
07:34PM 35.2344 -110.1683 73° East 487 560 41,000  Level Albuquerque Center
07:36PM 35.2706 -110.0150 74° East 490 564 41,000  Level Albuquerque Center
07:37PM 35.3122 -109.8344 74° East 493 567 41,000  Level Albuquerque Center
07:38PM 35.3475 -109.6797 74° East 494 568 41,000  Level Albuquerque Center
07:39PM 35.3894 -109.5011 74° East 491 565 41,000  Level Albuquerque Center
07:40PM 35.4236 -109.3456 75° East 493 567 41,000  Level Albuquerque Center
07:41PM 35.4600 -109.1906 74° East 496 571 41,000  Level Albuquerque Center
07:42PM 35.5011 -109.0136 74° East 489 563 41,000  Level Albuquerque Center
07:43PM 35.5364 -108.8600 74° East 489 563 41,000  Level Albuquerque Center
07:44PM 35.5772 -108.6778 75° East 496 571 41,000  Level Albuquerque Center
07:45PM 35.6119 -108.5197 75° East 501 577 41,100  Climbing Albuquerque Center
07:46PM 35.6528 -108.3369 75° East 501 577 41,000 -60 Descending Albuquerque Center
07:47PM 35.6869 -108.1831 75° East 495 570 41,000  Level Albuquerque Center
07:48PM 35.7258 -108.0025 75° East 491 565 41,000  Level Albuquerque Center
07:49PM 35.7589 -107.8481 75° East 490 564 41,000  Level Albuquerque Center
07:50PM 35.7981 -107.6683 75° East 487 560 41,000  Level Albuquerque Center
07:51PM 35.8308 -107.5092 76° East 495 570 41,000  Level Albuquerque Center
07:52PM 35.8653 -107.3522 75° East 497 572 41,000  Level Albuquerque Center
07:53PM 35.9042 -107.1714 75° East 491 565 41,000  Level Albuquerque Center
07:54PM 35.9375 -107.0161 75° East 491 565 41,000  Level Albuquerque Center
07:55PM 35.9750 -106.8339 76° East 491 565 41,000  Level Albuquerque Center
07:56PM 36.0067 -106.6786 76° East 489 563 41,000  Level Albuquerque Center
07:57PM 36.0397 -106.5189 76° East 495 570 41,000  Level Albuquerque Center
07:58PM 36.0731 -106.3514 76° East 498 573 41,000  Level Albuquerque Center
07:59PM 36.1064 -106.1869 76° East 493 567 41,000  Level Albuquerque Center
08:00PM 36.1464 -105.9881 76° East 492 566 41,000  Level Albuquerque Center
08:01PM 36.1783 -105.8217 77° East 492 566 41,000  Level Albuquerque Center
08:02PM 36.2108 -105.6558 76° East 494 568 41,000  Level Albuquerque Center
08:03PM 36.2428 -105.4986 76° East 491 565 41,000  Level Albuquerque Center
08:04PM 36.2739 -105.3317 77° East 491 565 41,000  Level Albuquerque Center
08:05PM 36.3058 -105.1647 77° East 492 566 41,000  Level Albuquerque Center
08:06PM 36.3425 -104.9708 77° East 490 564 41,000  Level Albuquerque Center
08:07PM 36.3739 -104.8028 77° East 492 566 41,000  Level Albuquerque Center
08:08PM 36.4058 -104.6350 77° East 494 568 41,000  Level Albuquerque Center
08:09PM 36.4367 -104.4700 77° East 489 563 41,000  Level Albuquerque Center
08:10PM 36.4667 -104.3067 77° East 483 556 41,000  Level Albuquerque Center
08:11PM 36.4961 -104.1444 77° East 479 551 41,000  Level Albuquerque Center
08:13PM 36.5256 -103.9819 77° East 477 549 41,000  Level Albuquerque Center
08:14PM 36.5556 -103.8186 77° East 479 551 41,000  Level Albuquerque Center
08:15PM 36.5839 -103.6547 78° East 480 552 41,000  Level Albuquerque Center
08:16PM 36.6178 -103.4658 77° East 476 548 41,000  Level Albuquerque Center
08:17PM 36.6461 -103.3053 78° East 474 545 41,000  Level Albuquerque Center
08:18PM 36.6733 -103.1422 78° East 473 544 41,000  Level Albuquerque Center
08:19PM 36.6997 -102.9886 78° East 475 547 41,000  Level Albuquerque Center
08:20PM 36.7303 -102.8103 78° East 473 544 41,000  Level Albuquerque Center
08:21PM 36.7558 -102.6558 78° East 475 547 41,000  Level Albuquerque Center
08:22PM 36.7864 -102.4733 78° East 476 548 41,000  Level Albuquerque Center
08:23PM 36.8131 -102.3100 78° East 478 550 41,000  Level Albuquerque Center
08:24PM 36.8403 -102.1503 78° East 479 551 41,000  Level Albuquerque Center
08:25PM 36.8694 -101.9697 79° East 476 548 41,000  Level Albuquerque Center
08:26PM 36.8942 -101.8131 79° East 477 549 41,000  Level Kansas City Center
08:27PM 36.9197 -101.6558 78° East 482 555 41,000  Level Kansas City Center
08:28PM 36.9481 -101.4728 79° East 482 555 41,000  Level Kansas City Center
08:29PM 36.9717 -101.3161 79° East 482 555 41,000  Level Kansas City Center
08:30PM 37.0006 -101.1353 79° East 479 551 41,000  Level Kansas City Center
08:31PM 37.0244 -100.9808 79° East 478 550 41,000  Level Kansas City Center
08:32PM 37.0517 -100.8000 79° East 477 549 41,000  Level Kansas City Center
08:33PM 37.0761 -100.6417 79° East 482 555 41,000  Level Kansas City Center
08:34PM 37.1033 -100.4586 79° East 483 556 41,000  Level Kansas City Center
08:35PM 37.1269 -100.3011 79° East 483 556 41,000  Level Kansas City Center
08:36PM 37.1536 -100.1164 80° East 484 557 41,000  Level Kansas City Center
08:37PM 37.1769 -99.9575 80° East 486 559 41,000  Level Kansas City Center
08:38PM 37.2003 -99.7964 80° East 489 563 41,000  Level Kansas City Center
08:39PM 37.2258 -99.6117 80° East 486 559 41,000  Level Kansas City Center
08:40PM 37.2497 -99.4425 80° East 485 558 41,000  Level Kansas City Center
08:41PM 37.2731 -99.2717 80° East 491 565 41,000  Level Kansas City Center
08:42PM 37.2947 -99.1050 81° East 485 558 41,000  Level Kansas City Center
08:43PM 37.3164 -98.9494 80° East 482 555 41,000  Level Kansas City Center
08:44PM 37.3425 -98.7492 81° East 483 556 41,000  Level Kansas City Center
08:45PM 37.3644 -98.5856 80° East 481 554 41,000  Level Kansas City Center
08:46PM 37.3861 -98.4200 81° East 481 554 41,000  Level Kansas City Center
08:48PM 37.4078 -98.2550 81° East 481 554 41,000  Level Kansas City Center
08:49PM 37.4281 -98.0897 81° East 482 555 41,000  Level Kansas City Center
08:50PM 37.4489 -97.9250 81° East 481 554 41,000  Level Kansas City Center
08:51PM 37.4744 -97.7278 81° East 480 552 41,000  Level Kansas City Center
08:52PM 37.4942 -97.5642 81° East 478 550 41,000  Level Kansas City Center
08:53PM 37.5150 -97.4022 81° East 473 544 41,000  Level Kansas City Center
08:54PM 37.5344 -97.2414 81° East 469 540 41,000  Level Kansas City Center
08:55PM 37.5536 -97.0786 82° East 471 542 41,000  Level Kansas City Center
08:56PM 37.5725 -96.9150 82° East 473 544 41,000  Level Kansas City Center
08:57PM 37.5956 -96.7183 82° East 473 544 41,000  Level Kansas City Center
08:58PM 37.6153 -96.5522 81° East 476 548 41,000  Level Kansas City Center
08:59PM 37.6342 -96.3867 82° East 481 554 41,000  Level Kansas City Center
09:00PM 37.6517 -96.2258 82° East 472 543 41,000  Level Kansas City Center
09:01PM 37.6689 -96.0653 82° East 465 535 41,000  Level Kansas City Center
09:02PM 37.6864 -95.9003 82° East 468 539 41,000  Level Kansas City Center
09:03PM 37.7042 -95.7344 82° East 473 544 41,000  Level Kansas City Center
09:04PM 37.7219 -95.5708 82° East 471 542 41,000  Level Kansas City Center
09:05PM 37.7428 -95.3708 82° East 474 545 41,000  Level Kansas City Center
09:06PM 37.7594 -95.2039 83° East 475 547 41,000  Level Kansas City Center
09:07PM 37.7750 -95.0528 83° East 476 548 41,000  Level Kansas City Center
09:08PM 37.7931 -94.8689 83° East 475 547 41,000  Level Kansas City Center
09:09PM 37.8083 -94.7108 83° East 475 547 41,000  Level Kansas City Center
09:10PM 37.8264 -94.5261 83° East 475 547 41,000  Level Kansas City Center
09:11PM 37.8414 -94.3633 83° East 474 545 41,000  Level Kansas City Center
09:12PM 37.8564 -94.1958 83° East 477 549 41,000  Level Kansas City Center
09:13PM 37.8733 -94.0275 83° East 480 552 41,000  Level Kansas City Center
09:14PM 37.8872 -93.8600 84° East 479 551 41,000  Level Kansas City Center
09:15PM 37.9028 -93.6928 83° East 478 550 41,000  Level Kansas City Center
09:16PM 37.9169 -93.5264 84° East 476 548 41,000  Level Kansas City Center
09:17PM 37.9347 -93.3289 83° East 471 542 41,000  Level Kansas City Center
09:18PM 37.9486 -93.1633 84° East 472 543 41,000  Level Kansas City Center
09:19PM 37.9633 -92.9964 84° East 475 547 41,000  Level Kansas City Center
09:20PM 37.9764 -92.8336 84° East 468 539 41,000  Level Kansas City Center
09:21PM 37.9892 -92.6764 84° East 477 549 41,000  Level Kansas City Center
09:22PM 38.0017 -92.5108 84° East 476 548 41,000  Level Kansas City Center
09:23PM 38.0142 -92.3464 84° East 474 545 41,000  Level Kansas City Center
09:24PM 38.0294 -92.1489 84° East 472 543 41,000  Level Kansas City Center
09:25PM 38.0414 -91.9869 85° East 474 545 41,000  Level Kansas City Center
09:27PM 38.0533 -91.8236 85° East 467 537 41,000  Level Kansas City Center
09:28PM 38.0661 -91.6589 84° East 467 537 41,000  Level Kansas City Center
09:29PM 38.0772 -91.4922 85° East 470 541 41,000  Level Kansas City Center
09:30PM 38.0875 -91.3242 86° East 473 544 41,000  Level Kansas City Center
09:31PM 38.0992 -91.1586 85° East 473 544 41,000  Level Kansas City Center
09:32PM 38.1114 -90.9956 85° East 472 543 41,000  Level Kansas City Center
09:33PM 38.1219 -90.7919 86° East 479 551 41,000  Level Kansas City Center
09:34PM 38.1325 -90.6286 85° East 475 547 41,000  Level Kansas City Center
09:35PM 38.1431 -90.4633 85° East 475 547 41,000  Level Kansas City Center
09:36PM 38.1525 -90.3003 86° East 471 542 41,000  Level Kansas City Center
09:37PM 38.1619 -90.1367 86° East 470 541 41,000  Level Kansas City Center
09:38PM 38.1725 -89.9697 85° East 476 548 41,000  Level Kansas City Center
09:39PM 38.1836 -89.7703 86° East 478 550 41,000  Level Kansas City Center
09:40PM 38.1919 -89.6081 86° East 467 537 41,000  Level Kansas City Center
09:41PM 38.2003 -89.4411 86° East 473 544 41,000  Level Kansas City Center
09:42PM 38.2094 -89.2764 86° East 471 542 41,000  Level Kansas City Center
09:43PM 38.2169 -89.1111 87° East 471 542 41,000  Level Kansas City Center
09:44PM 38.2231 -88.9464 87° East 470 541 41,000  Level Kansas City Center
09:45PM 38.2314 -88.7819 86° East 467 537 41,000  Level Kansas City Center
09:46PM 38.2403 -88.5914 87° East 467 537 41,000  Level Kansas City Center
09:47PM 38.2472 -88.4242 87° East 470 541 41,000  Level Kansas City Center
09:48PM 38.2550 -88.2589 87° East 468 539 41,000  Level Kansas City Center
09:49PM 38.2625 -88.0919 87° East 469 540 41,000  Level Kansas City Center
09:50PM 38.2694 -87.9256 87° East 473 544 41,000  Level Indianapolis Center
09:51PM 38.2767 -87.7594 87° East 470 541 41,000  Level Indianapolis Center
09:52PM 38.2825 -87.5925 87° East 470 541 41,000  Level Indianapolis Center
09:53PM 38.2906 -87.3933 87° East 470 541 41,000  Level Indianapolis Center
09:54PM 38.2956 -87.2358 88° East 467 537 41,000  Level Indianapolis Center
09:55PM 38.3014 -87.0750 87° East 471 542 41,000  Level Indianapolis Center
09:56PM 38.3058 -86.9075 88° East 475 547 41,000  Level Indianapolis Center
09:57PM 38.3108 -86.7403 88° East 470 541 41,000  Level Indianapolis Center
09:58PM 38.3153 -86.5750 88° East 468 539 41,000  Level Indianapolis Center
09:59PM 38.3197 -86.4097 88° East 465 535 41,000  Level Indianapolis Center
10:00PM 38.3239 -86.2442 88° East 468 539 41,000  Level Indianapolis Center
10:01PM 38.3294 -86.0439 88° East 470 541 41,000  Level Indianapolis Center
10:02PM 38.3328 -85.8767 88° East 471 542 41,000  Level Indianapolis Center
10:03PM 38.3372 -85.7094 88° East 472 543 41,000  Level Indianapolis Center
10:04PM 38.3403 -85.5408 89° East 475 547 41,000  Level Indianapolis Center
10:05PM 38.3436 -85.3719 89° East 474 545 41,000  Level Indianapolis Center
10:06PM 38.3461 -85.1978 89° East 476 548 41,000  Level Indianapolis Center
10:07PM 38.3494 -85.0294 89° East 475 547 41,000  Level Indianapolis Center
10:08PM 38.3506 -84.8592 89° East 478 550 41,000  Level Indianapolis Center
10:09PM 38.3531 -84.6906 89° East 478 550 41,000  Level Indianapolis Center
10:10PM 38.3544 -84.5211 89° East 478 550 41,000  Level Indianapolis Center
10:11PM 38.3564 -84.3503 89° East 481 554 41,000  Level Indianapolis Center
10:13PM 38.3583 -84.1800 89° East 481 554 41,000  Level Indianapolis Center
10:14PM 38.3586 -84.0100 90° East 479 551 41,000  Level Indianapolis Center
10:15PM 38.3606 -83.8400 89° East 479 551 41,000  Level Indianapolis Center
10:16PM 38.3597 -83.6439 90° East 475 547 41,000  Level Indianapolis Center
10:17PM 38.3600 -83.4731 90° East 478 550 41,000  Level Indianapolis Center
10:18PM 38.3594 -83.3025 90° East 479 551 41,000  Level Indianapolis Center
10:19PM 38.3597 -83.1300 90° East 483 556 41,000  Level Indianapolis Center
10:20PM 38.3594 -82.9561 90° East 487 560 41,000  Level Indianapolis Center
10:21PM 38.3594 -82.7833 90° East 487 560 41,000  Level Indianapolis Center
10:22PM 38.3569 -82.6083 91° East 491 565 41,000  Level Indianapolis Center
10:23PM 38.3564 -82.4336 90° East 492 566 41,000  Level Indianapolis Center
10:24PM 38.3550 -82.2592 91° East 493 567 41,000  Level Indianapolis Center
10:25PM 38.3544 -82.0858 90° East 492 566 41,000  Level Indianapolis Center
10:26PM 38.3525 -81.9114 91° East 494 568 41,000  Level Indianapolis Center
10:27PM 38.3494 -81.7358 91° East 499 574 41,000 -300 Level Indianapolis Center
10:28PM 38.3433 -81.5583 92° East 503 579 40,500 -960 Descending Indianapolis Center
10:29PM 38.3356 -81.3467 93° East 509 586 39,100 -1,320 Descending Indianapolis Center
10:30PM 38.3297 -81.1719 92° East 501 577 37,900 -1,080 Descending Indianapolis Center
10:31PM 38.3239 -80.9894 92° East 516 594 37,000 -1,080 Descending Indianapolis Center
10:32PM 38.3158 -80.8081 93° East 514 592 35,800 -1,320 Descending Indianapolis Center
10:33PM 38.3097 -80.6225 92° East 525 604 34,400 -1,380 Descending Indianapolis Center
10:34PM 38.3078 -80.4378 91° East 523 602 33,100 -1,560 Descending Indianapolis Center
10:35PM 38.3444 -80.2528 76° East 515 593 31,300 -1,740 Descending Indianapolis Center
10:36PM 38.3800 -80.0792 75° East 518 596 29,600 -1,740 Descending Indianapolis Center
10:37PM 38.4150 -79.9056 76° East 518 596 27,800 -1,740 Descending Indianapolis Center
10:38PM 38.4503 -79.7306 76° East 521 600 26,100 -1,740 Descending Indianapolis Center
10:39PM 38.4892 -79.5394 75° East 462 532 24,300 -1,080 Descending Indianapolis Center
10:40PM 38.5197 -79.3897 75° East 448 516 24,000 -300 Descending Indianapolis Center
10:41PM 38.5567 -79.2050 76° East 448 516 23,700 -1,140 Descending Washington Center
10:42PM 38.5861 -79.0553 76° East 448 516 21,500 -2,280 Descending Washington Center
10:43PM 38.6114 -78.9075 78° East 438 504 19,200 -2,220 Descending Washington Center
10:44PM 38.6400 -78.7706 75° East 419 482 17,200 -2,040 Descending Washington Center
10:45PM 38.6706 -78.6336 74° East 399 459 15,100 -2,100 Descending Washington Center
10:46PM 38.6947 -78.5017 77° East 393 452 13,000 -1,800 Descending Washington Center
10:47PM 38.6914 -78.3817 92° East 369 425 11,600 -1,380 Descending Washington Center
10:48PM 38.6897 -78.2672 91° East 339 390 10,400 -900 Descending Washington Center
10:49PM 38.6881 -78.1608 91° East 311 358 9,900 -1,020 Descending Washington Center
10:50PM 38.6861 -78.0517 91° East 306 352 8,400 -1,500 Descending Washington Center
10:51PM 38.6839 -77.9453 91° East 301 346 6,900 -1,500 Descending Washington Center
10:52PM 38.6797 -77.8414 93° East 291 335 5,400 -1,440 Descending Washington Center
10:53PM 38.6711 -77.7456 97° East 291 335 4,000 -720 Descending Washington Center
10:54PM 38.6664 -77.6522 94° East 277 319 4,000  Level Washington Center
10:55PM 38.6667 -77.6000 90° East 259 298 4,000 -540 Level Potomac TRACON
10:56PM 38.6833 -77.5167 76° East 252 290 3,200 -720 Descending Potomac TRACON
10:57PM 38.7167 -77.4667 49° Northeast 203 234 2,600 -600 Descending Potomac TRACON
10:58PM 38.7667 -77.4333 27° Northeast 166 191 2,000 -300 Descending Potomac TRACON
10:59PM 38.8000 -77.4333 360° North 159 183 2,000 -60 Level Potomac TRACON
11:00PM 38.8500 -77.4333 360° North 144 166 1,900 -360 Descending Potomac TRACON
11:01PM 38.8833 -77.4333 360° North 125 144 1,300 -720 Descending Potomac TRACON
11:02PM 38.9167 -77.4333 360° North 123 142 500 -720 Descending Potomac TRACON
11:04PM 38.9474 -77.4599 326° Northwest  Level Estimated